sensor_id;sensor_type;location;lat;lon;timestamp;temperature;humidity
51305;HTU21D;37392;50.964;6.952;2023-12-20T00:02:06;7.75;11.36
51305;HTU21D;37392;50.964;6.952;2023-12-20T00:04:31;7.74;11.29
51305;HTU21D;37392;50.964;6.952;2023-12-20T00:06:57;7.75;11.32
51305;HTU21D;37392;50.964;6.952;2023-12-20T00:09:22;7.77;11.40
51305;HTU21D;37392;50.964;6.952;2023-12-20T00:11:48;7.76;11.40
51305;HTU21D;37392;50.964;6.952;2023-12-20T00:14:13;7.75;11.42
51305;HTU21D;37392;50.964;6.952;2023-12-20T00:16:39;7.79;11.50
51305;HTU21D;37392;50.964;6.952;2023-12-20T00:19:04;7.79;11.52
51305;HTU21D;37392;50.964;6.952;2023-12-20T00:21:29;7.79;11.53
51305;HTU21D;37392;50.964;6.952;2023-12-20T00:23:55;7.81;11.61
51305;HTU21D;37392;50.964;6.952;2023-12-20T00:26:20;7.83;11.61
51305;HTU21D;37392;50.964;6.952;2023-12-20T00:28:46;7.82;11.61
51305;HTU21D;37392;50.964;6.952;2023-12-20T00:31:11;7.83;11.56
51305;HTU21D;37392;50.964;6.952;2023-12-20T00:33:37;7.78;11.52
51305;HTU21D;37392;50.964;6.952;2023-12-20T00:36:05;7.81;11.46
51305;HTU21D;37392;50.964;6.952;2023-12-20T00:38:31;7.79;11.36
51305;HTU21D;37392;50.964;6.952;2023-12-20T00:40:56;7.76;11.08
51305;HTU21D;37392;50.964;6.952;2023-12-20T00:43:22;7.71;10.89
51305;HTU21D;37392;50.964;6.952;2023-12-20T00:45:47;7.65;10.88
51305;HTU21D;37392;50.964;6.952;2023-12-20T00:48:13;7.65;10.97
51305;HTU21D;37392;50.964;6.952;2023-12-20T00:50:38;7.64;11.00
51305;HTU21D;37392;50.964;6.952;2023-12-20T00:53:04;7.61;10.89
51305;HTU21D;37392;50.964;6.952;2023-12-20T00:55:29;7.58;10.83
51305;HTU21D;37392;50.964;6.952;2023-12-20T00:57:55;7.58;10.81
51305;HTU21D;37392;50.964;6.952;2023-12-20T01:00:20;7.56;10.84
51305;HTU21D;37392;50.964;6.952;2023-12-20T01:02:46;7.57;10.78
51305;HTU21D;37392;50.964;6.952;2023-12-20T01:05:14;7.54;10.91
51305;HTU21D;37392;50.964;6.952;2023-12-20T01:07:39;7.48;10.55
51305;HTU21D;37392;50.964;6.952;2023-12-20T01:10:05;7.40;10.27
51305;HTU21D;37392;50.964;6.952;2023-12-20T01:12:31;7.28;10.31
51305;HTU21D;37392;50.964;6.952;2023-12-20T01:14:56;7.22;10.56
51305;HTU21D;37392;50.964;6.952;2023-12-20T01:17:23;7.12;10.48
51305;HTU21D;37392;50.964;6.952;2023-12-20T01:19:49;7.01;10.35
51305;HTU21D;37392;50.964;6.952;2023-12-20T01:22:14;6.87;10.30
51305;HTU21D;37392;50.964;6.952;2023-12-20T01:24:40;6.83;10.53
51305;HTU21D;37392;50.964;6.952;2023-12-20T01:27:05;6.88;10.83
51305;HTU21D;37392;50.964;6.952;2023-12-20T01:29:31;6.97;10.97
51305;HTU21D;37392;50.964;6.952;2023-12-20T01:31:56;6.88;10.87
51305;HTU21D;37392;50.964;6.952;2023-12-20T01:34:22;6.84;10.78
51305;HTU21D;37392;50.964;6.952;2023-12-20T01:36:47;6.90;10.78
51305;HTU21D;37392;50.964;6.952;2023-12-20T01:39:13;6.98;10.73
51305;HTU21D;37392;50.964;6.952;2023-12-20T01:41:38;7.00;10.75
51305;HTU21D;37392;50.964;6.952;2023-12-20T01:44:04;7.03;10.65
51305;HTU21D;37392;50.964;6.952;2023-12-20T01:46:30;7.07;10.49
51305;HTU21D;37392;50.964;6.952;2023-12-20T01:48:55;7.11;10.04
51305;HTU21D;37392;50.964;6.952;2023-12-20T01:51:21;7.09;9.50
51305;HTU21D;37392;50.964;6.952;2023-12-20T01:53:48;7.09;8.72
51305;HTU21D;37392;50.964;6.952;2023-12-20T01:56:15;7.09;8.58
51305;HTU21D;37392;50.964;6.952;2023-12-20T01:58:45;7.08;8.11
51305;HTU21D;37392;50.964;6.952;2023-12-20T02:01:12;7.04;7.99
51305;HTU21D;37392;50.964;6.952;2023-12-20T02:03:42;7.01;7.88
51305;HTU21D;37392;50.964;6.952;2023-12-20T02:06:08;7.01;7.84
51305;HTU21D;37392;50.964;6.952;2023-12-20T02:08:34;6.94;7.59
51305;HTU21D;37392;50.964;6.952;2023-12-20T02:11:00;6.76;7.52
51305;HTU21D;37392;50.964;6.952;2023-12-20T02:13:26;6.57;7.52
51305;HTU21D;37392;50.964;6.952;2023-12-20T02:15:52;6.39;7.76
51305;HTU21D;37392;50.964;6.952;2023-12-20T02:18:18;6.25;7.73
51305;HTU21D;37392;50.964;6.952;2023-12-20T02:20:44;6.16;7.35
51305;HTU21D;37392;50.964;6.952;2023-12-20T02:23:09;6.06;7.48
51305;HTU21D;37392;50.964;6.952;2023-12-20T02:25:35;5.89;7.56
51305;HTU21D;37392;50.964;6.952;2023-12-20T02:28:01;5.74;7.90
51305;HTU21D;37392;50.964;6.952;2023-12-20T02:30:27;5.60;8.06
51305;HTU21D;37392;50.964;6.952;2023-12-20T02:32:52;5.47;8.50
51305;HTU21D;37392;50.964;6.952;2023-12-20T02:35:19;5.42;9.12
51305;HTU21D;37392;50.964;6.952;2023-12-20T02:37:45;5.32;9.19
51305;HTU21D;37392;50.964;6.952;2023-12-20T02:40:10;5.43;9.39
51305;HTU21D;37392;50.964;6.952;2023-12-20T02:42:36;5.59;9.48
51305;HTU21D;37392;50.964;6.952;2023-12-20T02:45:02;5.65;9.71
51305;HTU21D;37392;50.964;6.952;2023-12-20T02:47:27;5.70;9.88
51305;HTU21D;37392;50.964;6.952;2023-12-20T02:49:55;5.78;9.88
51305;HTU21D;37392;50.964;6.952;2023-12-20T02:52:21;5.77;9.85
51305;HTU21D;37392;50.964;6.952;2023-12-20T02:54:48;5.82;9.60
51305;HTU21D;37392;50.964;6.952;2023-12-20T02:57:13;5.83;9.56
51305;HTU21D;37392;50.964;6.952;2023-12-20T02:59:39;5.91;9.69
51305;HTU21D;37392;50.964;6.952;2023-12-20T03:02:05;5.96;9.59
51305;HTU21D;37392;50.964;6.952;2023-12-20T03:04:30;5.99;9.48
51305;HTU21D;37392;50.964;6.952;2023-12-20T03:06:56;6.00;9.32
51305;HTU21D;37392;50.964;6.952;2023-12-20T03:09:21;6.06;9.13
51305;HTU21D;37392;50.964;6.952;2023-12-20T03:11:46;6.08;8.69
51305;HTU21D;37392;50.964;6.952;2023-12-20T03:14:12;6.10;8.27
51305;HTU21D;37392;50.964;6.952;2023-12-20T03:16:38;6.12;8.19
51305;HTU21D;37392;50.964;6.952;2023-12-20T03:19:03;6.15;7.89
51305;HTU21D;37392;50.964;6.952;2023-12-20T03:21:29;6.16;7.73
51305;HTU21D;37392;50.964;6.952;2023-12-20T03:23:54;6.19;7.49
51305;HTU21D;37392;50.964;6.952;2023-12-20T03:26:20;6.20;7.63
51305;HTU21D;37392;50.964;6.952;2023-12-20T03:28:45;6.23;8.15
51305;HTU21D;37392;50.964;6.952;2023-12-20T03:31:11;6.22;7.98
51305;HTU21D;37392;50.964;6.952;2023-12-20T03:33:36;6.23;7.94
51305;HTU21D;37392;50.964;6.952;2023-12-20T03:36:02;6.22;7.78
51305;HTU21D;37392;50.964;6.952;2023-12-20T03:38:27;6.21;7.72
51305;HTU21D;37392;50.964;6.952;2023-12-20T03:40:53;6.24;7.99
51305;HTU21D;37392;50.964;6.952;2023-12-20T03:43:18;6.25;8.11
51305;HTU21D;37392;50.964;6.952;2023-12-20T03:45:44;6.27;7.96
51305;HTU21D;37392;50.964;6.952;2023-12-20T03:48:09;6.27;7.82
51305;HTU21D;37392;50.964;6.952;2023-12-20T03:50:35;6.29;7.38
51305;HTU21D;37392;50.964;6.952;2023-12-20T03:53:01;6.23;7.20
51305;HTU21D;37392;50.964;6.952;2023-12-20T03:55:27;6.26;7.21
51305;HTU21D;37392;50.964;6.952;2023-12-20T03:57:52;6.23;6.76
51305;HTU21D;37392;50.964;6.952;2023-12-20T04:00:18;6.21;6.89
51305;HTU21D;37392;50.964;6.952;2023-12-20T04:02:43;6.17;7.31
51305;HTU21D;37392;50.964;6.952;2023-12-20T04:05:09;6.17;7.52
51305;HTU21D;37392;50.964;6.952;2023-12-20T04:07:36;6.20;7.63
51305;HTU21D;37392;50.964;6.952;2023-12-20T04:10:02;6.19;7.43
51305;HTU21D;37392;50.964;6.952;2023-12-20T04:12:29;6.21;6.89
51305;HTU21D;37392;50.964;6.952;2023-12-20T04:14:54;6.20;6.29
51305;HTU21D;37392;50.964;6.952;2023-12-20T04:17:20;6.20;6.32
51305;HTU21D;37392;50.964;6.952;2023-12-20T04:19:48;6.24;6.58
51305;HTU21D;37392;50.964;6.952;2023-12-20T04:22:14;6.19;6.35
51305;HTU21D;37392;50.964;6.952;2023-12-20T04:24:39;6.21;6.33
51305;HTU21D;37392;50.964;6.952;2023-12-20T04:27:07;6.23;7.00
51305;HTU21D;37392;50.964;6.952;2023-12-20T04:29:33;6.23;6.37
51305;HTU21D;37392;50.964;6.952;2023-12-20T04:31:59;6.22;6.45
51305;HTU21D;37392;50.964;6.952;2023-12-20T04:34:24;6.25;6.36
51305;HTU21D;37392;50.964;6.952;2023-12-20T04:36:50;6.25;6.12
51305;HTU21D;37392;50.964;6.952;2023-12-20T04:39:15;6.22;5.75
51305;HTU21D;37392;50.964;6.952;2023-12-20T04:41:41;6.22;4.68
51305;HTU21D;37392;50.964;6.952;2023-12-20T04:44:06;6.17;5.31
51305;HTU21D;37392;50.964;6.952;2023-12-20T04:46:32;6.05;5.25
51305;HTU21D;37392;50.964;6.952;2023-12-20T04:48:58;6.02;5.47
51305;HTU21D;37392;50.964;6.952;2023-12-20T04:51:24;5.93;5.56
51305;HTU21D;37392;50.964;6.952;2023-12-20T04:53:49;5.83;6.17
51305;HTU21D;37392;50.964;6.952;2023-12-20T04:56:15;5.92;6.70
51305;HTU21D;37392;50.964;6.952;2023-12-20T04:58:42;6.05;6.25
51305;HTU21D;37392;50.964;6.952;2023-12-20T05:01:08;6.12;5.82
51305;HTU21D;37392;50.964;6.952;2023-12-20T05:03:34;6.10;5.65
51305;HTU21D;37392;50.964;6.952;2023-12-20T05:06:00;6.00;5.20
51305;HTU21D;37392;50.964;6.952;2023-12-20T05:08:26;5.86;5.14
51305;HTU21D;37392;50.964;6.952;2023-12-20T05:10:55;5.84;4.96
51305;HTU21D;37392;50.964;6.952;2023-12-20T05:13:21;5.75;4.84
51305;HTU21D;37392;50.964;6.952;2023-12-20T05:15:46;5.63;4.91
51305;HTU21D;37392;50.964;6.952;2023-12-20T05:18:12;5.47;5.12
51305;HTU21D;37392;50.964;6.952;2023-12-20T05:20:39;5.37;5.76
51305;HTU21D;37392;50.964;6.952;2023-12-20T05:23:04;5.36;6.21
51305;HTU21D;37392;50.964;6.952;2023-12-20T05:25:30;5.39;6.95
51305;HTU21D;37392;50.964;6.952;2023-12-20T05:27:56;5.48;7.07
51305;HTU21D;37392;50.964;6.952;2023-12-20T05:30:21;5.45;6.87
51305;HTU21D;37392;50.964;6.952;2023-12-20T05:32:47;5.40;6.76
51305;HTU21D;37392;50.964;6.952;2023-12-20T05:35:13;5.46;7.18
51305;HTU21D;37392;50.964;6.952;2023-12-20T05:37:38;5.50;7.18
51305;HTU21D;37392;50.964;6.952;2023-12-20T05:40:05;5.45;6.65
51305;HTU21D;37392;50.964;6.952;2023-12-20T05:42:31;5.32;6.67
51305;HTU21D;37392;50.964;6.952;2023-12-20T05:44:56;5.23;6.88
51305;HTU21D;37392;50.964;6.952;2023-12-20T05:47:22;5.18;7.10
51305;HTU21D;37392;50.964;6.952;2023-12-20T05:49:47;5.18;7.30
51305;HTU21D;37392;50.964;6.952;2023-12-20T05:52:13;5.23;7.51
51305;HTU21D;37392;50.964;6.952;2023-12-20T05:54:39;5.33;7.45
51305;HTU21D;37392;50.964;6.952;2023-12-20T05:57:05;5.42;7.44
51305;HTU21D;37392;50.964;6.952;2023-12-20T05:59:33;5.53;7.48
51305;HTU21D;37392;50.964;6.952;2023-12-20T06:02:03;5.61;7.11
51305;HTU21D;37392;50.964;6.952;2023-12-20T06:04:30;5.66;7.08
51305;HTU21D;37392;50.964;6.952;2023-12-20T06:06:55;5.65;6.44
51305;HTU21D;37392;50.964;6.952;2023-12-20T06:09:21;5.71;5.76
51305;HTU21D;37392;50.964;6.952;2023-12-20T06:11:46;5.70;5.77
51305;HTU21D;37392;50.964;6.952;2023-12-20T06:14:12;5.74;5.83
51305;HTU21D;37392;50.964;6.952;2023-12-20T06:16:37;5.75;5.83
51305;HTU21D;37392;50.964;6.952;2023-12-20T06:19:03;5.80;5.73
51305;HTU21D;37392;50.964;6.952;2023-12-20T06:21:29;5.90;5.58
51305;HTU21D;37392;50.964;6.952;2023-12-20T06:23:54;5.94;5.37
51305;HTU21D;37392;50.964;6.952;2023-12-20T06:26:20;5.97;4.69
51305;HTU21D;37392;50.964;6.952;2023-12-20T06:28:45;6.00;4.91
51305;HTU21D;37392;50.964;6.952;2023-12-20T06:31:11;6.02;4.91
51305;HTU21D;37392;50.964;6.952;2023-12-20T06:33:38;6.04;4.99
51305;HTU21D;37392;50.964;6.952;2023-12-20T06:36:06;6.10;4.77
51305;HTU21D;37392;50.964;6.952;2023-12-20T06:38:31;6.11;4.39
51305;HTU21D;37392;50.964;6.952;2023-12-20T06:40:57;6.13;4.68
51305;HTU21D;37392;50.964;6.952;2023-12-20T06:43:23;6.13;5.00
51305;HTU21D;37392;50.964;6.952;2023-12-20T06:45:49;6.15;5.24
51305;HTU21D;37392;50.964;6.952;2023-12-20T06:48:16;6.20;4.50
51305;HTU21D;37392;50.964;6.952;2023-12-20T06:50:41;6.22;4.11
51305;HTU21D;37392;50.964;6.952;2023-12-20T06:53:07;6.21;4.04
51305;HTU21D;37392;50.964;6.952;2023-12-20T06:55:36;6.22;4.31
51305;HTU21D;37392;50.964;6.952;2023-12-20T06:58:03;6.26;3.88
51305;HTU21D;37392;50.964;6.952;2023-12-20T07:00:30;6.26;4.15
51305;HTU21D;37392;50.964;6.952;2023-12-20T07:02:55;6.29;3.36
51305;HTU21D;37392;50.964;6.952;2023-12-20T07:05:21;6.29;3.34
51305;HTU21D;37392;50.964;6.952;2023-12-20T07:07:47;6.37;3.57
51305;HTU21D;37392;50.964;6.952;2023-12-20T07:10:13;6.37;3.12
51305;HTU21D;37392;50.964;6.952;2023-12-20T07:12:39;6.39;1.59
51305;HTU21D;37392;50.964;6.952;2023-12-20T07:15:05;6.39;1.94
51305;HTU21D;37392;50.964;6.952;2023-12-20T07:17:32;6.41;1.58
51305;HTU21D;37392;50.964;6.952;2023-12-20T07:19:59;6.42;1.81
51305;HTU21D;37392;50.964;6.952;2023-12-20T07:22:28;6.42;1.93
51305;HTU21D;37392;50.964;6.952;2023-12-20T07:24:57;6.46;0.52
51305;HTU21D;37392;50.964;6.952;2023-12-20T07:27:23;6.50;0.86
51305;HTU21D;37392;50.964;6.952;2023-12-20T07:29:49;6.50;0.42
51305;HTU21D;37392;50.964;6.952;2023-12-20T07:32:14;6.52;0.02
51305;HTU21D;37392;50.964;6.952;2023-12-20T07:34:40;6.53;-0.31
51305;HTU21D;37392;50.964;6.952;2023-12-20T07:37:05;6.57;0.10
51305;HTU21D;37392;50.964;6.952;2023-12-20T07:39:31;6.55;-0.51
51305;HTU21D;37392;50.964;6.952;2023-12-20T07:41:57;6.59;0.33
51305;HTU21D;37392;50.964;6.952;2023-12-20T07:44:22;6.60;-0.44
51305;HTU21D;37392;50.964;6.952;2023-12-20T07:46:48;6.59;-0.74
51305;HTU21D;37392;50.964;6.952;2023-12-20T07:49:13;6.60;-1.34
51305;HTU21D;37392;50.964;6.952;2023-12-20T07:51:39;6.64;-1.80
51305;HTU21D;37392;50.964;6.952;2023-12-20T07:54:04;6.64;-1.18
51305;HTU21D;37392;50.964;6.952;2023-12-20T07:56:30;6.67;-0.93
51305;HTU21D;37392;50.964;6.952;2023-12-20T07:58:56;6.69;-1.27
51305;HTU21D;37392;50.964;6.952;2023-12-20T08:01:22;6.71;-0.89
51305;HTU21D;37392;50.964;6.952;2023-12-20T08:03:49;6.75;-2.76
51305;HTU21D;37392;50.964;6.952;2023-12-20T08:06:15;6.78;-2.83
51305;HTU21D;37392;50.964;6.952;2023-12-20T08:08:42;6.75;-2.64
51305;HTU21D;37392;50.964;6.952;2023-12-20T08:11:08;6.79;-2.48
51305;HTU21D;37392;50.964;6.952;2023-12-20T08:13:33;6.78;-3.38
51305;HTU21D;37392;50.964;6.952;2023-12-20T08:15:59;6.80;-2.37
51305;HTU21D;37392;50.964;6.952;2023-12-20T08:18:25;6.83;-1.53
51305;HTU21D;37392;50.964;6.952;2023-12-20T08:20:50;6.80;-2.59
51305;HTU21D;37392;50.964;6.952;2023-12-20T08:23:19;6.81;-3.29
51305;HTU21D;37392;50.964;6.952;2023-12-20T08:25:46;6.78;-3.30
51305;HTU21D;37392;50.964;6.952;2023-12-20T08:28:12;6.83;-3.73
51305;HTU21D;37392;50.964;6.952;2023-12-20T08:30:38;6.85;-3.27
51305;HTU21D;37392;50.964;6.952;2023-12-20T08:33:04;6.90;-2.64
51305;HTU21D;37392;50.964;6.952;2023-12-20T08:35:32;6.90;-4.02
51305;HTU21D;37392;50.964;6.952;2023-12-20T08:38:01;6.95;-4.36
51305;HTU21D;37392;50.964;6.952;2023-12-20T08:40:27;6.98;-4.46
51305;HTU21D;37392;50.964;6.952;2023-12-20T08:42:52;7.01;-4.55
51305;HTU21D;37392;50.964;6.952;2023-12-20T08:45:18;7.03;-3.98
51305;HTU21D;37392;50.964;6.952;2023-12-20T08:47:43;7.08;-4.78
51305;HTU21D;37392;50.964;6.952;2023-12-20T08:50:10;7.11;-3.97
51305;HTU21D;37392;50.964;6.952;2023-12-20T08:52:36;7.12;-3.76
51305;HTU21D;37392;50.964;6.952;2023-12-20T08:55:02;7.12;-4.36
51305;HTU21D;37392;50.964;6.952;2023-12-20T08:57:27;7.15;-5.34
51305;HTU21D;37392;50.964;6.952;2023-12-20T08:59:53;7.17;-4.99
51305;HTU21D;37392;50.964;6.952;2023-12-20T09:02:19;7.19;-5.40
51305;HTU21D;37392;50.964;6.952;2023-12-20T09:04:44;7.14;118.71
51305;HTU21D;37392;50.964;6.952;2023-12-20T09:09:48;7.14;-4.92
51305;HTU21D;37392;50.964;6.952;2023-12-20T09:12:14;7.13;-5.05
51305;HTU21D;37392;50.964;6.952;2023-12-20T09:14:40;7.17;-5.57
51305;HTU21D;37392;50.964;6.952;2023-12-20T09:17:06;7.12;-4.54
51305;HTU21D;37392;50.964;6.952;2023-12-20T09:19:34;7.14;-4.87
51305;HTU21D;37392;50.964;6.952;2023-12-20T09:21:59;7.16;118.99
51305;HTU21D;37392;50.964;6.952;2023-12-20T09:24:25;7.16;-4.60
51305;HTU21D;37392;50.964;6.952;2023-12-20T09:26:50;7.17;-5.84
51305;HTU21D;37392;50.964;6.952;2023-12-20T09:29:16;7.17;-5.22
51305;HTU21D;37392;50.964;6.952;2023-12-20T09:31:42;7.18;-5.86
51305;HTU21D;37392;50.964;6.952;2023-12-20T09:34:09;7.23;-4.74
51305;HTU21D;37392;50.964;6.952;2023-12-20T09:36:34;7.29;-5.63
51305;HTU21D;37392;50.964;6.952;2023-12-20T09:39:01;7.38;-5.85
51305;HTU21D;37392;50.964;6.952;2023-12-20T09:41:32;7.41;118.72
51305;HTU21D;37392;50.964;6.952;2023-12-20T09:44:03;7.48;117.53
51305;HTU21D;37392;50.964;6.952;2023-12-20T09:46:29;7.52;116.19
51305;HTU21D;37392;50.964;6.952;2023-12-20T09:49:00;7.58;116.19
51305;HTU21D;37392;50.964;6.952;2023-12-20T09:51:28;7.61;115.97
51305;HTU21D;37392;50.964;6.952;2023-12-20T09:53:54;7.64;115.19
51305;HTU21D;37392;50.964;6.952;2023-12-20T09:56:23;7.69;115.95
51305;HTU21D;37392;50.964;6.952;2023-12-20T09:58:50;7.73;115.11
51305;HTU21D;37392;50.964;6.952;2023-12-20T10:01:16;7.71;114.77
51305;HTU21D;37392;50.964;6.952;2023-12-20T10:03:42;7.69;115.70
51305;HTU21D;37392;50.964;6.952;2023-12-20T10:06:08;7.73;115.80
51305;HTU21D;37392;50.964;6.952;2023-12-20T10:08:34;7.73;115.76
51305;HTU21D;37392;50.964;6.952;2023-12-20T10:11:00;7.75;116.22
51305;HTU21D;37392;50.964;6.952;2023-12-20T10:13:28;7.70;115.48
51305;HTU21D;37392;50.964;6.952;2023-12-20T10:15:55;7.65;114.97
51305;HTU21D;37392;50.964;6.952;2023-12-20T10:18:21;7.67;114.70
51305;HTU21D;37392;50.964;6.952;2023-12-20T10:20:49;7.71;114.71
51305;HTU21D;37392;50.964;6.952;2023-12-20T10:23:15;7.71;115.50
51305;HTU21D;37392;50.964;6.952;2023-12-20T10:25:41;7.70;114.13
51305;HTU21D;37392;50.964;6.952;2023-12-20T10:28:16;7.81;114.80
51305;HTU21D;37392;50.964;6.952;2023-12-20T10:30:48;7.83;113.50
51305;HTU21D;37392;50.964;6.952;2023-12-20T10:33:13;7.89;113.87
51305;HTU21D;37392;50.964;6.952;2023-12-20T10:35:39;7.87;112.22
51305;HTU21D;37392;50.964;6.952;2023-12-20T10:38:06;7.86;112.03
51305;HTU21D;37392;50.964;6.952;2023-12-20T10:40:36;7.83;112.61
51305;HTU21D;37392;50.964;6.952;2023-12-20T10:43:03;7.88;112.87
51305;HTU21D;37392;50.964;6.952;2023-12-20T10:45:29;7.88;112.22
51305;HTU21D;37392;50.964;6.952;2023-12-20T10:47:55;7.91;112.88
51305;HTU21D;37392;50.964;6.952;2023-12-20T10:50:21;7.91;111.95
51305;HTU21D;37392;50.964;6.952;2023-12-20T10:52:47;7.91;112.72
51305;HTU21D;37392;50.964;6.952;2023-12-20T10:55:13;7.93;112.29
51305;HTU21D;37392;50.964;6.952;2023-12-20T10:57:39;7.92;112.82
51305;HTU21D;37392;50.964;6.952;2023-12-20T11:00:08;7.91;112.32
51305;HTU21D;37392;50.964;6.952;2023-12-20T11:02:39;7.90;111.36
51305;HTU21D;37392;50.964;6.952;2023-12-20T11:05:14;7.88;112.56
51305;HTU21D;37392;50.964;6.952;2023-12-20T11:08:11;7.93;113.38
51305;HTU21D;37392;50.964;6.952;2023-12-20T11:10:43;7.87;110.91
51305;HTU21D;37392;50.964;6.952;2023-12-20T11:13:53;7.87;111.53
51305;HTU21D;37392;50.964;6.952;2023-12-20T11:16:21;7.87;111.44
51305;HTU21D;37392;50.964;6.952;2023-12-20T11:18:47;7.94;110.78
51305;HTU21D;37392;50.964;6.952;2023-12-20T11:21:12;7.96;110.35
51305;HTU21D;37392;50.964;6.952;2023-12-20T11:23:42;7.96;110.87
51305;HTU21D;37392;50.964;6.952;2023-12-20T11:26:08;7.99;111.23
51305;HTU21D;37392;50.964;6.952;2023-12-20T11:28:33;7.98;110.28
51305;HTU21D;37392;50.964;6.952;2023-12-20T11:31:01;7.97;111.43
51305;HTU21D;37392;50.964;6.952;2023-12-20T11:33:38;8.04;111.75
51305;HTU21D;37392;50.964;6.952;2023-12-20T11:36:13;8.09;110.90
51305;HTU21D;37392;50.964;6.952;2023-12-20T11:38:54;8.26;111.02
51305;HTU21D;37392;50.964;6.952;2023-12-20T11:41:23;8.42;110.34
51305;HTU21D;37392;50.964;6.952;2023-12-20T11:43:55;8.41;108.81
51305;HTU21D;37392;50.964;6.952;2023-12-20T11:46:21;8.39;107.57
51305;HTU21D;37392;50.964;6.952;2023-12-20T11:48:48;8.43;107.63
51305;HTU21D;37392;50.964;6.952;2023-12-20T11:51:13;8.35;106.69
51305;HTU21D;37392;50.964;6.952;2023-12-20T11:53:40;8.34;107.91
51305;HTU21D;37392;50.964;6.952;2023-12-20T11:56:07;8.34;108.24
51305;HTU21D;37392;50.964;6.952;2023-12-20T11:58:34;8.35;107.08
51305;HTU21D;37392;50.964;6.952;2023-12-20T12:00:59;8.39;107.51
51305;HTU21D;37392;50.964;6.952;2023-12-20T12:03:27;8.31;107.87
51305;HTU21D;37392;50.964;6.952;2023-12-20T12:05:53;8.32;107.62
51305;HTU21D;37392;50.964;6.952;2023-12-20T12:08:18;8.30;107.86
51305;HTU21D;37392;50.964;6.952;2023-12-20T12:10:44;8.34;109.17
51305;HTU21D;37392;50.964;6.952;2023-12-20T12:13:10;8.30;107.28
51305;HTU21D;37392;50.964;6.952;2023-12-20T12:15:37;8.30;107.87
51305;HTU21D;37392;50.964;6.952;2023-12-20T12:18:03;8.19;107.49
51305;HTU21D;37392;50.964;6.952;2023-12-20T12:20:30;8.23;108.59
51305;HTU21D;37392;50.964;6.952;2023-12-20T12:23:06;8.23;108.67
51305;HTU21D;37392;50.964;6.952;2023-12-20T12:25:34;8.22;108.75
51305;HTU21D;37392;50.964;6.952;2023-12-20T12:28:02;8.17;107.59
51305;HTU21D;37392;50.964;6.952;2023-12-20T12:30:27;8.14;107.89
51305;HTU21D;37392;50.964;6.952;2023-12-20T12:32:55;8.12;108.08
51305;HTU21D;37392;50.964;6.952;2023-12-20T12:35:21;8.14;107.97
51305;HTU21D;37392;50.964;6.952;2023-12-20T12:37:47;8.15;107.91
51305;HTU21D;37392;50.964;6.952;2023-12-20T12:40:13;8.12;107.68
51305;HTU21D;37392;50.964;6.952;2023-12-20T12:42:41;8.14;107.48
51305;HTU21D;37392;50.964;6.952;2023-12-20T12:45:09;8.15;107.66
51305;HTU21D;37392;50.964;6.952;2023-12-20T12:47:35;8.22;108.04
51305;HTU21D;37392;50.964;6.952;2023-12-20T12:50:01;8.24;107.57
51305;HTU21D;37392;50.964;6.952;2023-12-20T12:52:26;8.31;107.87
51305;HTU21D;37392;50.964;6.952;2023-12-20T12:54:52;8.36;108.11
51305;HTU21D;37392;50.964;6.952;2023-12-20T12:57:19;8.38;106.97
51305;HTU21D;37392;50.964;6.952;2023-12-20T12:59:45;8.35;107.30
51305;HTU21D;37392;50.964;6.952;2023-12-20T13:02:15;8.36;108.04
51305;HTU21D;37392;50.964;6.952;2023-12-20T13:04:41;8.33;107.74
51305;HTU21D;37392;50.964;6.952;2023-12-20T13:07:08;8.33;108.17
51305;HTU21D;37392;50.964;6.952;2023-12-20T13:09:38;8.34;108.16
51305;HTU21D;37392;50.964;6.952;2023-12-20T13:12:07;8.39;107.33
51305;HTU21D;37392;50.964;6.952;2023-12-20T13:14:34;8.47;107.75
51305;HTU21D;37392;50.964;6.952;2023-12-20T13:17:02;8.57;107.49
51305;HTU21D;37392;50.964;6.952;2023-12-20T13:19:28;8.59;107.13
51305;HTU21D;37392;50.964;6.952;2023-12-20T13:21:55;8.67;107.24
51305;HTU21D;37392;50.964;6.952;2023-12-20T13:24:21;8.70;107.52
51305;HTU21D;37392;50.964;6.952;2023-12-20T13:26:49;8.74;107.31
51305;HTU21D;37392;50.964;6.952;2023-12-20T13:29:18;8.78;107.14
51305;HTU21D;37392;50.964;6.952;2023-12-20T13:31:43;8.67;106.44
51305;HTU21D;37392;50.964;6.952;2023-12-20T13:34:09;8.68;107.95
51305;HTU21D;37392;50.964;6.952;2023-12-20T13:36:35;8.61;108.83
51305;HTU21D;37392;50.964;6.952;2023-12-20T13:39:01;8.59;109.59
51305;HTU21D;37392;50.964;6.952;2023-12-20T13:41:29;8.55;110.89
51305;HTU21D;37392;50.964;6.952;2023-12-20T13:43:55;8.51;109.88
51305;HTU21D;37392;50.964;6.952;2023-12-20T13:46:21;8.44;108.08
51305;HTU21D;37392;50.964;6.952;2023-12-20T13:48:46;8.38;107.81
51305;HTU21D;37392;50.964;6.952;2023-12-20T13:51:12;8.46;108.46
51305;HTU21D;37392;50.964;6.952;2023-12-20T13:53:38;8.43;107.62
51305;HTU21D;37392;50.964;6.952;2023-12-20T13:56:04;8.39;108.08
51305;HTU21D;37392;50.964;6.952;2023-12-20T13:58:30;8.37;108.38
51305;HTU21D;37392;50.964;6.952;2023-12-20T14:00:56;8.35;108.08
51305;HTU21D;37392;50.964;6.952;2023-12-20T14:03:21;8.37;108.12
51305;HTU21D;37392;50.964;6.952;2023-12-20T14:05:47;8.37;108.17
51305;HTU21D;37392;50.964;6.952;2023-12-20T14:08:12;8.37;108.56
51305;HTU21D;37392;50.964;6.952;2023-12-20T14:10:38;8.38;108.64
51305;HTU21D;37392;50.964;6.952;2023-12-20T14:13:04;8.39;108.46
51305;HTU21D;37392;50.964;6.952;2023-12-20T14:15:30;8.47;108.59
51305;HTU21D;37392;50.964;6.952;2023-12-20T14:18:05;8.43;108.33
51305;HTU21D;37392;50.964;6.952;2023-12-20T14:20:31;8.44;108.46
51305;HTU21D;37392;50.964;6.952;2023-12-20T14:23:03;8.49;108.27
51305;HTU21D;37392;50.964;6.952;2023-12-20T14:25:29;8.43;107.68
51305;HTU21D;37392;50.964;6.952;2023-12-20T14:27:54;8.46;107.85
51305;HTU21D;37392;50.964;6.952;2023-12-20T14:30:21;8.46;107.16
51305;HTU21D;37392;50.964;6.952;2023-12-20T14:32:47;8.45;107.53
51305;HTU21D;37392;50.964;6.952;2023-12-20T14:35:13;8.46;107.47
51305;HTU21D;37392;50.964;6.952;2023-12-20T14:37:39;8.45;107.66
51305;HTU21D;37392;50.964;6.952;2023-12-20T14:40:06;8.49;107.62
51305;HTU21D;37392;50.964;6.952;2023-12-20T14:42:36;8.53;107.97
51305;HTU21D;37392;50.964;6.952;2023-12-20T14:45:02;8.51;107.34
51305;HTU21D;37392;50.964;6.952;2023-12-20T14:47:28;8.52;107.56
51305;HTU21D;37392;50.964;6.952;2023-12-20T14:49:53;8.56;107.62
51305;HTU21D;37392;50.964;6.952;2023-12-20T14:52:19;8.60;107.63
51305;HTU21D;37392;50.964;6.952;2023-12-20T14:54:45;8.63;107.78
51305;HTU21D;37392;50.964;6.952;2023-12-20T14:57:10;8.71;107.80
51305;HTU21D;37392;50.964;6.952;2023-12-20T14:59:36;8.65;107.42
51305;HTU21D;37392;50.964;6.952;2023-12-20T15:02:01;8.64;107.72
51305;HTU21D;37392;50.964;6.952;2023-12-20T15:04:31;8.61;107.38
51305;HTU21D;37392;50.964;6.952;2023-12-20T15:06:57;8.60;107.72
51305;HTU21D;37392;50.964;6.952;2023-12-20T15:09:22;8.53;107.38
51305;HTU21D;37392;50.964;6.952;2023-12-20T15:11:48;8.52;107.59
51305;HTU21D;37392;50.964;6.952;2023-12-20T15:14:13;8.50;107.30
51305;HTU21D;37392;50.964;6.952;2023-12-20T15:16:47;8.49;107.62
51305;HTU21D;37392;50.964;6.952;2023-12-20T15:19:13;8.48;107.85
51305;HTU21D;37392;50.964;6.952;2023-12-20T15:21:39;8.47;108.04
51305;HTU21D;37392;50.964;6.952;2023-12-20T15:24:11;8.42;108.18
51305;HTU21D;37392;50.964;6.952;2023-12-20T15:26:46;8.38;108.54
51305;HTU21D;37392;50.964;6.952;2023-12-20T15:29:12;8.41;109.00